Antwerp, New York
Current Conditions -  °F | °C
As of 2:58 PM on Monday 26 Jan 2015 (Local Time) from KGTB Reporting Station
Overcast Overcast  
Wind Chill: -22°   Ceiling: 4500
Heat Index: -12°   Visibility: 10mi
Dew Point: -20°   Wind: 16mph
Humidity: 55%   Direction: 40°NE
Pressure: 29.98"   Gusts: NA
Location:  44.2°N, 75.61°W
Report Text: KGTB 261958Z AUTO 04014KT 10SM BKN045 OVC055 M12/M20 A2998 RMK AO2 SLP170 T11231196
Loading
Personal Weather Stations






























Interactive Weather Map New forecast layout! Learn more

10-Day Weather Forecast

Advertisements
Track Severe Weather on mobile